createdAt,value
2022-08-05T00:00:23.588Z,38.42
2022-08-05T00:01:27.387Z,38.41
2022-08-05T00:02:23.649Z,38.43
2022-08-05T00:03:23.570Z,38.48
2022-08-05T00:04:23.580Z,38.46
2022-08-05T00:06:02.959Z,38.48
2022-08-05T00:06:30.651Z,38.50
2022-08-05T00:07:59.099Z,38.53
2022-08-05T00:08:34.142Z,38.57
2022-08-05T00:09:23.574Z,38.62
2022-08-05T00:10:27.143Z,38.63
2022-08-05T00:11:30.515Z,38.67
2022-08-05T00:12:23.558Z,38.71
2022-08-05T00:13:38.037Z,38.68
2022-08-05T00:14:27.733Z,38.67
2022-08-05T00:15:56.161Z,38.68
2022-08-05T00:16:35.537Z,38.72
2022-08-05T00:17:23.525Z,38.72
2022-08-05T00:18:23.531Z,38.71
2022-08-05T00:19:25.043Z,38.69
2022-08-05T00:20:23.515Z,38.71
2022-08-05T00:21:23.512Z,38.71
2022-08-05T00:22:23.531Z,38.72
2022-08-05T00:23:31.045Z,38.73
2022-08-05T00:24:24.861Z,38.74
2022-08-05T00:25:23.504Z,38.74
2022-08-05T00:26:23.514Z,38.74
2022-08-05T00:27:35.924Z,38.72
2022-08-05T00:28:29.625Z,38.74
2022-08-05T00:29:25.671Z,38.74
2022-08-05T00:30:29.236Z,38.74
2022-08-05T00:31:53.554Z,38.72
2022-08-05T00:32:25.885Z,38.77
2022-08-05T00:34:55.320Z,38.78
2022-08-05T00:35:11.022Z,38.80
2022-08-05T00:35:23.501Z,38.94
2022-08-05T00:37:10.380Z,38.94
2022-08-05T00:37:23.540Z,38.91
2022-08-05T00:38:28.800Z,38.94
2022-08-05T00:39:24.462Z,38.98
2022-08-05T00:40:28.453Z,38.97
2022-08-05T00:41:23.519Z,39.01
2022-08-05T00:42:32.206Z,39.03
2022-08-05T00:43:23.505Z,39.15
2022-08-05T00:44:30.371Z,39.15
2022-08-05T00:45:38.675Z,39.20
2022-08-05T00:46:36.911Z,39.23
2022-08-05T00:47:23.486Z,39.26
2022-08-05T00:48:27.429Z,39.26
2022-08-05T00:49:23.455Z,39.28
2022-08-05T00:50:25.349Z,39.33
2022-08-05T00:51:51.840Z,39.37
2022-08-05T00:52:23.922Z,39.39
2022-08-05T00:53:45.247Z,39.46
2022-08-05T00:54:23.500Z,39.49
2022-08-05T00:55:23.441Z,39.44
2022-08-05T00:56:23.452Z,39.56
2022-08-05T00:57:25.507Z,39.64
2022-08-05T00:58:27.338Z,39.62
2022-08-05T00:59:23.436Z,39.59
2022-08-05T01:00:26.000Z,39.59
2022-08-05T01:01:42.139Z,39.61
2022-08-05T01:02:24.398Z,39.70
2022-08-05T01:03:23.579Z,39.75
2022-08-05T01:04:26.867Z,39.75
2022-08-05T01:05:23.434Z,39.82
2022-08-05T01:06:28.892Z,39.84
2022-08-05T01:07:23.460Z,39.78
2022-08-05T01:08:31.602Z,39.78
2022-08-05T01:09:23.420Z,39.87
2022-08-05T01:10:25.570Z,39.92
2022-08-05T01:11:24.258Z,40.03
2022-08-05T01:12:23.443Z,40.10
2022-08-05T01:13:27.200Z,40.17
2022-08-05T01:14:28.135Z,40.20
2022-08-05T01:15:35.718Z,40.26
2022-08-05T01:16:26.286Z,40.22
2022-08-05T01:17:23.704Z,40.36
2022-08-05T01:18:23.412Z,40.33
2022-08-05T01:19:46.238Z,40.31
2022-08-05T01:20:23.417Z,40.39
2022-08-05T01:21:23.406Z,40.36
2022-08-05T01:22:24.274Z,40.43
2022-08-05T01:23:23.725Z,40.47
2022-08-05T01:24:23.390Z,40.57
2022-08-05T01:25:23.386Z,40.61
2022-08-05T01:26:26.343Z,40.57
2022-08-05T01:27:23.367Z,40.60
2022-08-05T01:28:23.367Z,40.51
2022-08-05T01:29:23.403Z,40.59
2022-08-05T01:30:34.571Z,40.56
2022-08-05T01:31:23.361Z,40.73
2022-08-05T01:32:23.370Z,40.80
2022-08-05T01:33:25.332Z,40.91
2022-08-05T01:34:26.959Z,40.96
2022-08-05T01:35:50.956Z,41.01
2022-08-05T01:36:28.134Z,41.05
2022-08-05T01:37:25.206Z,41.07
2022-08-05T01:38:27.598Z,41.10
2022-08-05T01:39:45.525Z,40.99
2022-08-05T01:40:27.904Z,41.01
2022-08-05T01:41:25.684Z,40.94
2022-08-05T01:42:23.307Z,40.98
2022-08-05T01:43:24.136Z,41.03
2022-08-05T01:44:23.334Z,41.12
2022-08-05T01:45:23.303Z,41.12
2022-08-05T01:46:42.134Z,41.11
2022-08-05T01:47:23.486Z,41.08
2022-08-05T01:48:23.318Z,41.08
2022-08-05T01:49:24.896Z,41.17
2022-08-05T01:50:28.714Z,41.23
2022-08-05T01:51:23.268Z,41.24
2022-08-05T01:52:23.269Z,41.25
2022-08-05T01:53:54.993Z,41.20
2022-08-05T01:54:25.562Z,41.31
2022-08-05T01:55:23.273Z,41.34
2022-08-05T01:58:11.958Z,41.41
2022-08-05T01:58:45.377Z,41.34
2022-08-05T01:58:51.429Z,41.77
2022-08-05T01:59:51.017Z,41.74
2022-08-05T02:00:51.034Z,41.67
2022-08-05T02:01:51.048Z,41.70
2022-08-05T02:02:54.351Z,41.82
2022-08-05T02:03:51.030Z,41.81
2022-08-05T02:04:51.032Z,41.85
2022-08-05T02:05:51.052Z,41.87
2022-08-05T02:06:51.073Z,41.83
2022-08-05T02:07:59.903Z,41.81
2022-08-05T02:08:58.073Z,41.77
2022-08-05T02:09:51.227Z,41.76
2022-08-05T02:10:51.090Z,41.80
2022-08-05T02:11:52.636Z,41.81
2022-08-05T02:12:51.195Z,41.85
2022-08-05T02:13:53.622Z,41.87
2022-08-05T02:14:51.175Z,41.96
2022-08-05T02:15:51.117Z,41.90
2022-08-05T02:16:52.751Z,41.84
2022-08-05T02:18:32.053Z,41.88
2022-08-05T02:18:51.120Z,41.85
2022-08-05T02:19:51.122Z,41.90
2022-08-05T02:20:51.124Z,41.96
2022-08-05T02:21:51.136Z,42.04
2022-08-05T02:22:51.143Z,42.16
2022-08-05T02:23:51.130Z,42.08
2022-08-05T02:24:51.487Z,42.11
2022-08-05T02:25:51.128Z,42.04
2022-08-05T02:26:53.848Z,42.02
2022-08-05T02:27:58.978Z,41.99
2022-08-05T02:28:51.164Z,42.05
2022-08-05T02:29:59.703Z,42.00
2022-08-05T02:30:54.328Z,41.98
2022-08-05T02:31:51.154Z,42.06
2022-08-05T02:32:51.147Z,42.17
2022-08-05T02:33:57.325Z,42.20
2022-08-05T02:34:54.732Z,42.18
2022-08-05T02:35:56.222Z,42.19
2022-08-05T02:36:51.148Z,42.26
2022-08-05T02:37:53.838Z,42.26
2022-08-05T02:38:53.348Z,42.28
2022-08-05T02:39:51.532Z,42.30
2022-08-05T02:40:51.151Z,42.23
2022-08-05T02:42:00.532Z,42.25
2022-08-05T02:42:52.620Z,42.28
2022-08-05T02:44:06.562Z,42.17
2022-08-05T02:44:51.158Z,42.16
2022-08-05T02:45:51.911Z,42.13
2022-08-05T02:46:58.626Z,42.08
2022-08-05T02:48:06.622Z,42.22
2022-08-05T02:48:51.184Z,42.32
2022-08-05T02:49:51.180Z,42.34
2022-08-05T02:50:51.192Z,42.30
2022-08-05T02:52:02.708Z,42.22
2022-08-05T02:52:51.213Z,42.17
2022-08-05T02:53:54.729Z,42.24
2022-08-05T02:54:52.252Z,42.24
2022-08-05T02:55:54.885Z,42.27
2022-08-05T02:56:51.190Z,42.30
2022-08-05T02:58:19.911Z,42.27
2022-08-05T02:58:52.649Z,42.34
2022-08-05T02:59:52.033Z,42.33
2022-08-05T03:00:51.240Z,42.46
2022-08-05T03:01:51.296Z,42.45
2022-08-05T03:02:51.244Z,42.49
2022-08-05T03:04:02.521Z,42.56
2022-08-05T03:04:53.355Z,42.59
2022-08-05T03:06:55.503Z,42.65
2022-08-05T03:07:03.830Z,42.70
2022-08-05T03:08:07.165Z,42.80
2022-08-05T03:08:52.231Z,42.78
2022-08-05T03:09:51.960Z,42.82
2022-08-05T03:11:53.400Z,42.71
2022-08-05T03:12:01.911Z,42.70
2022-08-05T03:12:51.729Z,42.76
2022-08-05T03:14:03.023Z,42.76
2022-08-05T03:14:51.226Z,42.79
2022-08-05T03:15:51.924Z,42.77
2022-08-05T03:16:53.405Z,42.82
2022-08-05T03:17:54.042Z,42.85
2022-08-05T03:18:51.312Z,42.90
2022-08-05T03:19:51.289Z,42.88
2022-08-05T03:20:51.231Z,42.99
2022-08-05T03:21:51.249Z,43.00
2022-08-05T03:22:51.221Z,43.06
2022-08-05T03:23:51.234Z,43.05
2022-08-05T03:24:52.243Z,42.93
2022-08-05T03:26:04.530Z,42.94
2022-08-05T03:26:51.233Z,43.01
2022-08-05T03:27:59.574Z,43.01
2022-08-05T03:28:51.220Z,43.02
2022-08-05T03:30:07.369Z,42.99
2022-08-05T03:30:51.201Z,43.08
2022-08-05T03:31:56.188Z,43.06
2022-08-05T03:32:51.224Z,43.11
2022-08-05T03:33:53.187Z,43.09
2022-08-05T03:34:51.674Z,43.09
2022-08-05T03:35:51.683Z,43.04
2022-08-05T03:36:51.306Z,43.07
2022-08-05T03:37:51.288Z,43.10
2022-08-05T03:38:53.351Z,43.09
2022-08-05T03:39:59.193Z,43.14
2022-08-05T03:40:51.363Z,43.17
2022-08-05T03:41:52.686Z,43.11
2022-08-05T03:42:52.244Z,43.17
2022-08-05T03:44:08.499Z,43.29
2022-08-05T03:44:51.313Z,43.35
2022-08-05T03:45:57.290Z,43.36
2022-08-05T03:46:51.318Z,43.42
2022-08-05T03:47:51.340Z,43.43
2022-08-05T03:48:51.319Z,43.33
2022-08-05T03:49:52.432Z,43.42
2022-08-05T03:50:51.303Z,43.29
2022-08-05T03:52:37.258Z,43.25
2022-08-05T03:56:01.608Z,43.21
2022-08-05T03:56:27.922Z,43.62
2022-08-05T03:56:37.721Z,43.70
2022-08-05T03:57:29.078Z,43.59
2022-08-05T03:58:29.203Z,43.42
2022-08-05T03:59:29.034Z,43.41
2022-08-05T04:00:27.244Z,43.30
2022-08-05T04:01:27.303Z,43.27
2022-08-05T04:02:38.977Z,43.26
2022-08-05T04:03:28.789Z,43.25
2022-08-05T04:04:27.450Z,43.26
2022-08-05T04:05:27.939Z,43.25
2022-08-05T04:06:27.284Z,43.22
2022-08-05T04:07:27.274Z,43.25
2022-08-05T04:08:34.972Z,43.21
2022-08-05T04:09:27.303Z,43.30
2022-08-05T04:10:27.622Z,43.27
2022-08-05T04:11:50.541Z,43.29
2022-08-05T04:12:27.327Z,43.29
2022-08-05T04:13:49.326Z,43.30
2022-08-05T04:14:29.923Z,43.22
2022-08-05T04:15:27.964Z,43.33
2022-08-05T04:16:32.567Z,43.30
2022-08-05T04:17:55.584Z,43.33
2022-08-05T04:18:27.448Z,43.35
2022-08-05T04:19:27.380Z,43.29
2022-08-05T04:20:27.399Z,43.27
2022-08-05T04:22:08.931Z,43.27
2022-08-05T04:22:27.402Z,43.33
2022-08-05T04:24:04.861Z,43.28
2022-08-05T04:24:27.657Z,43.34
2022-08-05T04:25:56.693Z,43.30
2022-08-05T04:26:32.314Z,43.32
2022-08-05T04:27:33.247Z,43.35
2022-08-05T04:28:30.849Z,43.34
2022-08-05T04:29:27.449Z,43.33
2022-08-05T04:30:27.436Z,43.42
2022-08-05T04:31:27.604Z,43.39
2022-08-05T04:32:31.196Z,43.37
2022-08-05T04:34:17.594Z,43.55
2022-08-05T04:34:33.767Z,43.53
2022-08-05T04:35:27.511Z,43.61
2022-08-05T04:36:45.542Z,43.68
2022-08-05T04:38:00.718Z,43.77
2022-08-05T04:38:39.162Z,43.83
2022-08-05T04:39:27.926Z,43.76
2022-08-05T04:40:27.545Z,43.84
2022-08-05T04:41:36.579Z,44.07
2022-08-05T04:42:27.575Z,44.23
2022-08-05T04:43:27.600Z,43.80
2022-08-05T04:44:30.171Z,43.78
2022-08-05T04:45:48.580Z,43.84
2022-08-05T04:46:27.802Z,43.90
2022-08-05T04:47:27.610Z,43.72
2022-08-05T04:48:28.417Z,43.82
2022-08-05T04:49:39.212Z,43.83
2022-08-05T04:50:37.693Z,43.76
2022-08-05T04:51:30.578Z,43.82
2022-08-05T04:52:28.076Z,43.80
2022-08-05T04:53:27.696Z,43.77
2022-08-05T04:54:27.713Z,43.70
2022-08-05T04:56:15.216Z,43.63
2022-08-05T04:56:38.612Z,43.65
2022-08-05T04:57:28.566Z,43.73
2022-08-05T04:58:27.728Z,43.69
2022-08-05T04:59:38.255Z,43.69
2022-08-05T05:00:27.739Z,43.63
2022-08-05T05:02:04.119Z,43.71
2022-08-05T05:02:41.857Z,43.58
2022-08-05T05:03:27.729Z,43.68
2022-08-05T05:04:27.744Z,43.64
2022-08-05T05:05:28.836Z,43.78
2022-08-05T05:06:38.738Z,44.24
2022-08-05T05:07:29.714Z,44.01
2022-08-05T05:08:30.405Z,43.71
2022-08-05T05:09:27.809Z,43.80
2022-08-05T05:10:29.550Z,43.78
2022-08-05T05:11:41.492Z,43.92
2022-08-05T05:12:27.919Z,43.78
2022-08-05T05:13:32.387Z,43.91
2022-08-05T05:14:32.053Z,43.99
2022-08-05T05:15:57.198Z,43.96
2022-08-05T05:16:30.423Z,43.97
2022-08-05T05:17:27.845Z,43.98
2022-08-05T05:18:31.472Z,44.43
2022-08-05T05:19:37.044Z,43.96
2022-08-05T05:20:28.414Z,44.14
2022-08-05T05:21:27.848Z,44.03
2022-08-05T05:22:27.857Z,44.38
2022-08-05T05:23:27.829Z,44.42
2022-08-05T05:24:58.477Z,44.26
2022-08-05T05:25:40.287Z,44.30
2022-08-05T05:26:28.391Z,44.45
2022-08-05T05:27:41.385Z,44.55
2022-08-05T05:28:27.885Z,44.61
2022-08-05T05:30:03.542Z,44.61
2022-08-05T05:30:31.413Z,44.64
2022-08-05T05:31:35.906Z,44.83
2022-08-05T05:32:26.890Z,44.68
2022-08-05T05:33:27.900Z,44.76
2022-08-05T05:34:27.962Z,44.81
2022-08-05T05:35:27.933Z,44.86
2022-08-05T05:36:28.327Z,44.92
2022-08-05T05:37:37.479Z,45.00
2022-08-05T05:38:28.101Z,45.10
2022-08-05T05:39:31.699Z,45.02
2022-08-05T05:40:28.070Z,45.05
2022-08-05T05:41:40.041Z,45.19
2022-08-05T05:42:27.982Z,45.13
2022-08-05T05:43:57.396Z,45.08
2022-08-05T05:44:36.389Z,45.18
2022-08-05T05:45:28.048Z,45.20
2022-08-05T05:46:27.981Z,45.21
2022-08-05T05:47:28.307Z,45.15
2022-08-05T05:48:28.214Z,45.22
2022-08-05T05:49:27.984Z,45.15
2022-08-05T05:50:28.013Z,45.24
2022-08-05T05:51:28.228Z,45.12
2022-08-05T05:52:29.830Z,45.32
2022-08-05T05:53:27.987Z,45.28
2022-08-05T05:54:50.537Z,45.21
2022-08-05T05:55:51.769Z,45.23
2022-08-05T05:56:33.065Z,45.23
2022-08-05T05:57:42.728Z,45.18
2022-08-05T05:58:31.420Z,45.23
2022-08-05T05:59:28.729Z,45.24
2022-08-05T06:00:34.216Z,45.28
2022-08-05T06:01:32.933Z,45.34
2022-08-05T06:02:37.398Z,45.25
2022-08-05T06:03:40.079Z,45.34
2022-08-05T06:04:28.108Z,45.31
2022-08-05T06:05:28.086Z,45.25
2022-08-05T06:06:33.055Z,45.27
2022-08-05T06:07:41.633Z,45.30
2022-08-05T06:08:32.664Z,45.30
2022-08-05T06:09:59.927Z,45.34
2022-08-05T06:10:29.411Z,45.28
2022-08-05T06:11:29.019Z,45.33
2022-08-05T06:12:28.131Z,45.34
2022-08-05T06:13:28.103Z,45.37
2022-08-05T06:14:28.964Z,45.30
2022-08-05T06:16:27.416Z,45.27
2022-08-05T06:16:37.139Z,45.37
2022-08-05T06:17:30.923Z,45.37
2022-08-05T06:18:31.427Z,45.36
2022-08-05T06:19:34.120Z,45.36
2022-08-05T06:20:28.227Z,45.38
2022-08-05T06:21:36.531Z,45.33
2022-08-05T06:22:28.196Z,45.36
2022-08-05T06:23:28.169Z,45.32
2022-08-05T06:24:28.185Z,45.24
2022-08-05T06:26:12.644Z,45.30
2022-08-05T06:26:31.836Z,45.17
2022-08-05T06:28:10.448Z,45.19
2022-08-05T06:28:28.625Z,45.27
2022-08-05T06:29:49.629Z,45.18
2022-08-05T06:30:28.226Z,45.22
2022-08-05T06:31:30.527Z,45.27
2022-08-05T06:32:29.140Z,45.19
2022-08-05T06:34:02.964Z,45.22
2022-08-05T06:34:28.222Z,45.20
2022-08-05T06:36:07.802Z,45.20
2022-08-05T06:36:28.266Z,45.20
2022-08-05T06:37:55.622Z,45.25
2022-08-05T06:38:36.728Z,45.18
2022-08-05T06:39:28.344Z,45.22
2022-08-05T06:40:32.519Z,45.23
2022-08-05T06:41:28.305Z,45.25
2022-08-05T06:42:28.323Z,45.28
2022-08-05T06:43:59.187Z,45.25
2022-08-05T06:44:28.319Z,45.33
2022-08-05T06:45:44.614Z,45.34
2022-08-05T06:46:29.926Z,45.27
2022-08-05T06:48:11.560Z,45.28
2022-08-05T06:48:55.643Z,45.34
2022-08-05T06:50:01.475Z,45.37
2022-08-05T06:50:28.371Z,45.41
2022-08-05T06:51:30.126Z,45.38
2022-08-05T06:52:37.088Z,45.33
2022-08-05T06:53:29.119Z,45.34
2022-08-05T06:54:28.371Z,45.35
2022-08-05T06:55:28.363Z,45.36
2022-08-05T06:56:28.368Z,45.35
2022-08-05T06:57:57.378Z,45.35
2022-08-05T06:58:35.247Z,45.42
2022-08-05T06:59:28.375Z,45.40
2022-08-05T07:00:29.666Z,45.42
2022-08-05T07:01:32.270Z,45.41
2022-08-05T07:02:28.429Z,45.42
2022-08-05T07:03:32.909Z,45.40
2022-08-05T07:04:28.385Z,45.44
2022-08-05T07:05:37.198Z,45.42
2022-08-05T07:06:28.456Z,45.44
2022-08-05T07:07:35.385Z,45.45
2022-08-05T07:08:28.451Z,45.49
2022-08-05T07:09:32.353Z,45.47
2022-08-05T07:10:32.366Z,45.49
2022-08-05T07:11:28.403Z,45.50
2022-08-05T07:12:28.416Z,45.50
2022-08-05T07:13:57.173Z,45.52
2022-08-05T07:14:29.821Z,45.55
2022-08-05T07:15:34.698Z,45.62
2022-08-05T07:17:57.285Z,45.60
2022-08-05T07:18:10.223Z,45.67
2022-08-05T07:18:30.104Z,45.76
2022-08-05T07:20:33.786Z,45.69
2022-08-05T07:21:28.457Z,45.64
2022-08-05T07:22:30.249Z,45.64
2022-08-05T07:23:29.573Z,45.67
2022-08-05T07:24:28.678Z,45.65
2022-08-05T07:25:54.930Z,45.64
2022-08-05T07:26:28.528Z,45.67
2022-08-05T07:27:58.658Z,45.64
2022-08-05T07:28:28.520Z,45.69
2022-08-05T07:30:27.173Z,45.68
2022-08-05T07:30:38.438Z,45.72
2022-08-05T07:31:53.914Z,45.79
2022-08-05T07:32:28.515Z,45.76
2022-08-05T07:33:37.019Z,45.77
2022-08-05T07:34:28.887Z,45.78
2022-08-05T07:36:03.318Z,45.77
2022-08-05T07:36:28.555Z,45.79
2022-08-05T07:37:29.076Z,45.81
2022-08-05T07:38:33.288Z,45.84
2022-08-05T07:40:04.441Z,45.86
2022-08-05T07:40:33.272Z,45.84
2022-08-05T07:42:08.677Z,45.81
2022-08-05T07:42:33.571Z,45.88
2022-08-05T07:43:28.598Z,45.82
2022-08-05T07:44:28.631Z,45.77
2022-08-05T07:45:31.205Z,45.80
2022-08-05T07:46:28.648Z,45.81
2022-08-05T07:47:42.277Z,45.81
2022-08-05T07:49:02.195Z,45.79
2022-08-05T07:49:28.667Z,45.91
2022-08-05T07:50:32.529Z,45.87
2022-08-05T07:51:37.240Z,45.89
2022-08-05T07:52:28.668Z,45.95
2022-08-05T07:53:37.062Z,45.95
2022-08-05T07:54:31.579Z,45.95
2022-08-05T07:55:44.542Z,46.01
2022-08-05T07:57:00.002Z,45.90
2022-08-05T07:57:55.336Z,45.97
2022-08-05T07:58:57.676Z,45.99
2022-08-05T07:59:39.075Z,45.96
2022-08-05T08:00:28.749Z,46.01
2022-08-05T08:01:30.014Z,46.04
2022-08-05T08:02:30.983Z,46.02
2022-08-05T08:03:44.596Z,46.05
2022-08-05T08:04:38.048Z,46.06
2022-08-05T08:05:28.756Z,46.07
2022-08-05T08:06:28.769Z,46.08
2022-08-05T08:07:29.210Z,46.08
2022-08-05T08:08:28.800Z,46.13
2022-08-05T08:09:29.199Z,46.09
2022-08-05T08:10:28.749Z,46.06
2022-08-05T08:11:50.274Z,46.09
2022-08-05T08:12:48.705Z,46.06
2022-08-05T08:13:29.121Z,46.04
2022-08-05T08:14:28.805Z,46.18
2022-08-05T08:16:34.308Z,46.11
2022-08-05T08:16:50.962Z,46.16
2022-08-05T08:17:28.823Z,46.20
2022-08-05T08:18:28.844Z,46.14
2022-08-05T08:20:23.382Z,46.16
2022-08-05T08:21:02.781Z,46.16
2022-08-05T08:21:28.873Z,46.28
2022-08-05T08:22:28.866Z,46.20
2022-08-05T08:24:02.973Z,46.11
2022-08-05T08:24:51.080Z,46.12
2022-08-05T08:26:00.520Z,46.11
2022-08-05T08:26:29.928Z,46.11
2022-08-05T08:27:40.035Z,46.10
2022-08-05T08:28:36.350Z,46.09
2022-08-05T08:30:03.873Z,46.22
2022-08-05T08:30:37.703Z,46.15
2022-08-05T08:31:28.887Z,46.15
2022-08-05T08:32:28.903Z,46.14
2022-08-05T08:33:28.908Z,46.08
2022-08-05T08:34:30.911Z,46.09
2022-08-05T08:35:28.944Z,46.05
2022-08-05T08:36:38.126Z,46.02
2022-08-05T08:37:29.042Z,46.03
2022-08-05T08:38:35.220Z,45.98
2022-08-05T08:39:29.066Z,45.95
2022-08-05T08:40:29.004Z,45.92
2022-08-05T08:41:52.459Z,45.91
2022-08-05T08:42:34.597Z,45.92
2022-08-05T08:45:24.265Z,45.92
2022-08-05T08:45:31.111Z,45.92
2022-08-05T08:45:36.703Z,46.11
2022-08-05T08:46:36.706Z,46.06
2022-08-05T08:48:05.583Z,46.03
2022-08-05T08:49:03.089Z,46.09
2022-08-05T08:50:12.844Z,46.10
2022-08-05T08:51:03.583Z,46.09
2022-08-05T08:52:03.695Z,46.10
2022-08-05T08:52:36.785Z,46.04
2022-08-05T08:53:36.779Z,46.04
2022-08-05T08:54:36.806Z,46.04
2022-08-05T08:56:03.948Z,46.00
2022-08-05T08:56:36.800Z,46.02
2022-08-05T08:57:48.259Z,46.12
2022-08-05T08:58:43.801Z,46.17
2022-08-05T08:59:36.856Z,46.10
2022-08-05T09:00:36.974Z,46.07
2022-08-05T09:01:36.837Z,46.09
2022-08-05T09:02:36.841Z,46.07
2022-08-05T09:03:40.491Z,46.00
2022-08-05T09:04:36.864Z,46.00
2022-08-05T09:05:38.605Z,45.97
2022-08-05T09:06:36.839Z,45.98
2022-08-05T09:07:39.728Z,45.90
2022-08-05T09:08:37.285Z,45.89
2022-08-05T09:09:38.119Z,45.87
2022-08-05T09:10:36.881Z,45.82
2022-08-05T09:11:51.277Z,45.80
2022-08-05T09:12:36.904Z,45.78
2022-08-05T09:14:09.068Z,45.73
2022-08-05T09:15:06.412Z,45.72
2022-08-05T09:15:37.352Z,45.78
2022-08-05T09:16:36.956Z,45.71
2022-08-05T09:17:43.172Z,45.68
2022-08-05T09:18:40.101Z,45.63
2022-08-05T09:20:01.748Z,45.62
2022-08-05T09:20:38.100Z,45.60
2022-08-05T09:22:22.145Z,45.59
2022-08-05T09:22:37.342Z,45.57
2022-08-05T09:23:37.420Z,45.56
2022-08-05T09:24:37.083Z,45.58
2022-08-05T09:26:03.325Z,45.56
2022-08-05T09:26:37.108Z,45.58
2022-08-05T09:28:04.891Z,45.51
2022-08-05T09:28:37.121Z,45.58
2022-08-05T09:29:37.147Z,45.57
2022-08-05T09:30:37.155Z,45.63
2022-08-05T09:32:42.124Z,45.59
2022-08-05T09:32:56.343Z,45.62
2022-08-05T09:33:37.167Z,45.67
2022-08-05T09:34:37.197Z,45.63
2022-08-05T09:35:37.173Z,45.66
2022-08-05T09:36:37.195Z,45.65
2022-08-05T09:38:16.670Z,45.64
2022-08-05T09:38:37.208Z,45.63
2022-08-05T09:39:41.662Z,45.59
2022-08-05T09:40:37.234Z,45.61
2022-08-05T09:41:39.085Z,45.61
2022-08-05T09:42:37.243Z,45.61
2022-08-05T09:43:40.461Z,45.60
2022-08-05T09:44:37.282Z,45.57
2022-08-05T09:46:06.960Z,45.60
2022-08-05T09:46:37.299Z,45.60
2022-08-05T09:47:55.496Z,45.57
2022-08-05T09:48:37.314Z,45.55
2022-08-05T09:49:54.924Z,45.52
2022-08-05T09:50:44.024Z,45.56
2022-08-05T09:51:37.310Z,45.54
2022-08-05T09:52:44.974Z,45.51
2022-08-05T09:53:54.356Z,45.50
2022-08-05T09:54:37.343Z,45.52
2022-08-05T09:55:56.262Z,45.52
2022-08-05T09:56:37.340Z,45.49
2022-08-05T09:57:39.533Z,45.50
2022-08-05T09:58:37.328Z,45.57
2022-08-05T09:59:37.420Z,45.56
2022-08-05T10:00:37.338Z,45.54
2022-08-05T10:01:39.617Z,45.55
2022-08-05T10:02:37.376Z,45.52
2022-08-05T10:03:38.793Z,45.52
2022-08-05T10:04:38.349Z,45.54
2022-08-05T10:05:37.378Z,45.61
2022-08-05T10:06:37.396Z,45.54
2022-08-05T10:08:34.738Z,45.54
2022-08-05T10:08:42.623Z,45.57
2022-08-05T10:09:44.968Z,45.61
2022-08-05T10:10:37.422Z,45.64
2022-08-05T10:11:37.410Z,45.57
2022-08-05T10:12:37.689Z,45.53
2022-08-05T10:13:47.883Z,45.59
2022-08-05T10:14:37.457Z,45.56
2022-08-05T10:15:37.424Z,45.58
2022-08-05T10:16:52.435Z,45.54
2022-08-05T10:17:40.720Z,45.56
2022-08-05T10:18:37.442Z,45.56
2022-08-05T10:20:03.612Z,45.56
2022-08-05T10:20:37.449Z,45.55
2022-08-05T10:21:40.450Z,45.49
2022-08-05T10:22:38.090Z,45.56
2022-08-05T10:23:59.074Z,45.61
2022-08-05T10:24:39.752Z,45.55
2022-08-05T10:25:37.545Z,45.59
2022-08-05T10:26:37.514Z,45.49
2022-08-05T10:28:13.910Z,45.58
2022-08-05T10:28:37.589Z,45.54
2022-08-05T10:30:06.519Z,45.53
2022-08-05T10:32:47.137Z,45.56
2022-08-05T10:33:02.508Z,45.66
2022-08-05T10:33:09.004Z,45.84
2022-08-05T10:34:07.140Z,45.74
2022-08-05T10:35:06.650Z,45.60
2022-08-05T10:36:06.669Z,45.55
2022-08-05T10:37:06.666Z,45.48
2022-08-05T10:38:08.380Z,45.45
2022-08-05T10:39:10.499Z,45.48
2022-08-05T10:40:17.490Z,45.43
2022-08-05T10:41:06.735Z,45.43
2022-08-05T10:42:06.689Z,45.42
2022-08-05T10:43:06.742Z,45.43
2022-08-05T10:44:06.742Z,45.40
2022-08-05T10:45:20.947Z,45.39
2022-08-05T10:46:07.054Z,45.40
2022-08-05T10:47:10.285Z,45.38
2022-08-05T10:48:31.761Z,45.37
2022-08-05T10:49:10.091Z,45.39
2022-08-05T10:50:33.192Z,45.40
2022-08-05T10:51:22.139Z,45.38
2022-08-05T10:52:10.369Z,45.41
2022-08-05T10:53:06.712Z,45.39
2022-08-05T10:54:28.752Z,45.39
2022-08-05T10:55:06.742Z,45.47
2022-08-05T10:56:21.575Z,45.38
2022-08-05T10:57:06.718Z,45.53
2022-08-05T10:58:06.733Z,45.50
2022-08-05T10:59:07.357Z,45.52
2022-08-05T11:00:10.147Z,45.46
2022-08-05T11:01:06.758Z,45.39
2022-08-05T11:02:06.805Z,45.44
2022-08-05T11:03:23.285Z,45.43
2022-08-05T11:04:06.757Z,45.43
2022-08-05T11:05:06.733Z,45.43
2022-08-05T11:06:08.318Z,45.41
2022-08-05T11:07:06.764Z,45.40
2022-08-05T11:08:33.797Z,45.38
2022-08-05T11:09:06.769Z,45.38
2022-08-05T11:10:10.248Z,45.38
2022-08-05T11:11:14.545Z,45.36
2022-08-05T11:12:06.784Z,45.35
2022-08-05T11:13:06.780Z,45.33
2022-08-05T11:14:06.834Z,45.32
2022-08-05T11:15:19.709Z,45.37
2022-08-05T11:16:06.800Z,45.37
2022-08-05T11:17:57.582Z,45.37
2022-08-05T11:18:06.776Z,45.31
2022-08-05T11:20:10.224Z,45.35
2022-08-05T11:20:21.032Z,45.33
2022-08-05T11:21:11.585Z,45.38
2022-08-05T11:22:06.811Z,45.41
2022-08-05T11:23:10.363Z,45.36
2022-08-05T11:24:29.985Z,45.35
2022-08-05T11:26:03.068Z,45.33
2022-08-05T11:26:10.978Z,45.32
2022-08-05T11:27:06.825Z,45.41
2022-08-05T11:28:06.845Z,45.30
2022-08-05T11:29:13.884Z,45.27
2022-08-05T11:30:06.855Z,45.33
2022-08-05T11:31:06.899Z,45.26
2022-08-05T11:32:06.846Z,45.27
2022-08-05T11:33:06.838Z,45.27
2022-08-05T11:34:08.024Z,45.50
2022-08-05T11:35:06.887Z,45.32
2022-08-05T11:36:08.439Z,45.27
2022-08-05T11:38:30.467Z,45.24
2022-08-05T11:38:45.326Z,45.24
2022-08-05T11:39:06.932Z,45.39
2022-08-05T11:40:06.883Z,45.35
2022-08-05T11:41:35.698Z,45.30
2022-08-05T11:42:06.918Z,45.27
2022-08-05T11:43:06.889Z,45.25
2022-08-05T11:44:08.284Z,45.24
2022-08-05T11:45:14.598Z,45.21
2022-08-05T11:46:32.242Z,45.25
2022-08-05T11:47:14.009Z,45.31
2022-08-05T11:48:06.905Z,45.24
2022-08-05T11:49:08.052Z,45.26
2022-08-05T11:50:06.919Z,45.23
2022-08-05T11:51:06.930Z,45.21
2022-08-05T11:52:11.442Z,45.20
2022-08-05T11:53:10.043Z,45.19
2022-08-05T11:54:06.990Z,45.18
2022-08-05T11:55:07.795Z,45.16
2022-08-05T11:56:06.982Z,45.17
2022-08-05T11:57:08.723Z,45.18
2022-08-05T11:58:10.087Z,45.19
2022-08-05T11:59:13.551Z,45.19
2022-08-05T12:00:07.010Z,45.20
2022-08-05T12:01:08.507Z,45.17
2022-08-05T12:02:07.013Z,45.15
2022-08-05T12:03:07.065Z,45.15
2022-08-05T12:04:07.036Z,45.14
2022-08-05T12:05:18.311Z,45.13
2022-08-05T12:06:10.064Z,45.17
2022-08-05T12:07:07.040Z,45.14
2022-08-05T12:08:09.510Z,45.15
2022-08-05T12:09:07.024Z,45.18
2022-08-05T12:10:09.571Z,45.17
2022-08-05T12:11:07.018Z,45.16
2022-08-05T12:12:07.027Z,45.12
2022-08-05T12:13:16.372Z,45.11
2022-08-05T12:14:07.148Z,45.16
2022-08-05T12:15:07.747Z,45.23
2022-08-05T12:16:14.249Z,45.13
2022-08-05T12:18:03.415Z,45.13
2022-08-05T12:18:11.092Z,45.11
2022-08-05T12:19:08.426Z,45.10
2022-08-05T12:20:26.215Z,45.08
2022-08-05T12:21:07.036Z,45.08
2022-08-05T12:22:09.385Z,45.06
2022-08-05T12:23:07.060Z,45.06
2022-08-05T12:24:07.597Z,45.04
2022-08-05T12:25:07.048Z,45.05
2022-08-05T12:26:07.053Z,45.03
2022-08-05T12:27:09.915Z,45.00
2022-08-05T12:28:07.082Z,45.00
2022-08-05T12:29:09.439Z,45.00
2022-08-05T12:30:07.082Z,45.01
2022-08-05T12:31:07.087Z,45.00
2022-08-05T12:32:07.399Z,44.98
2022-08-05T12:33:27.065Z,44.99
2022-08-05T12:34:07.156Z,44.99
2022-08-05T12:35:07.139Z,44.97
2022-08-05T12:36:08.317Z,44.96
2022-08-05T12:37:07.120Z,44.93
2022-08-05T12:38:07.176Z,44.93
2022-08-05T12:39:07.207Z,44.92
2022-08-05T12:40:10.933Z,44.93
2022-08-05T12:41:12.462Z,44.92
2022-08-05T12:42:08.386Z,44.95
2022-08-05T12:43:07.142Z,44.91
2022-08-05T12:44:11.429Z,44.91
2022-08-05T12:45:08.706Z,44.91
2022-08-05T12:46:07.136Z,44.91
2022-08-05T12:47:07.114Z,44.90
2022-08-05T12:48:17.232Z,44.91
2022-08-05T12:49:12.989Z,44.91
2022-08-05T12:50:07.414Z,44.90
2022-08-05T12:51:07.154Z,44.91
2022-08-05T12:52:23.783Z,44.90
2022-08-05T12:53:07.222Z,44.93
2022-08-05T12:54:14.816Z,44.97
2022-08-05T12:55:07.180Z,44.91
2022-08-05T12:56:07.134Z,44.93